Oneill, Nebraska
Current Conditions -  °F | °C
As of 8:15 PM on Wednesday 17 Dec 2014 (Local Time) from KONL Reporting Station
Overcast Overcast  
Wind Chill: 15°   Ceiling: 900
Heat Index: 22°   Visibility: 10mi
Dew Point: 20°   Wind: 5mph
Humidity: 93%   Direction: 160°SSE
Pressure: 30.19"   Gusts: NA
Location:  42.46°N, 98.65°W
Report Text: KONL 180215Z AUTO 16004KT 10SM OVC009 M06/M07 A3019 RMK AO2 T10581067
Loading
Personal Weather Stations






























Interactive Weather Map New forecast layout! Learn more

10-Day Weather Forecast

Advertisements
Track Severe Weather on mobile